sensor_id;sensor_type;location;lat;lon;timestamp;temperature;humidity
3298;DHT22;1661;53.572;10.174;2022-07-21T00:01:53;22.70;66.60
3298;DHT22;1661;53.572;10.174;2022-07-21T00:04:21;22.70;66.80
3298;DHT22;1661;53.572;10.174;2022-07-21T00:06:48;22.70;66.60
3298;DHT22;1661;53.572;10.174;2022-07-21T00:09:15;22.70;66.60
3298;DHT22;1661;53.572;10.174;2022-07-21T00:11:47;22.60;67.10
3298;DHT22;1661;53.572;10.174;2022-07-21T00:14:14;22.40;67.70
3298;DHT22;1661;53.572;10.174;2022-07-21T00:16:41;22.40;67.60
3298;DHT22;1661;53.572;10.174;2022-07-21T00:19:12;22.30;67.60
3298;DHT22;1661;53.572;10.174;2022-07-21T00:21:39;22.20;68.00
3298;DHT22;1661;53.572;10.174;2022-07-21T00:24:06;22.10;68.10
3298;DHT22;1661;53.572;10.174;2022-07-21T00:26:35;22.10;68.00
3298;DHT22;1661;53.572;10.174;2022-07-21T00:29:02;22.10;68.50
3298;DHT22;1661;53.572;10.174;2022-07-21T00:31:29;22.10;68.20
3298;DHT22;1661;53.572;10.174;2022-07-21T00:33:56;22.10;68.20
3298;DHT22;1661;53.572;10.174;2022-07-21T00:36:24;22.10;68.10
3298;DHT22;1661;53.572;10.174;2022-07-21T00:38:53;22.10;68.60
3298;DHT22;1661;53.572;10.174;2022-07-21T00:41:22;22.10;68.60
3298;DHT22;1661;53.572;10.174;2022-07-21T00:43:49;22.00;68.40
3298;DHT22;1661;53.572;10.174;2022-07-21T00:46:19;22.00;68.50
3298;DHT22;1661;53.572;10.174;2022-07-21T00:48:46;22.00;68.50
3298;DHT22;1661;53.572;10.174;2022-07-21T00:51:13;22.10;68.30
3298;DHT22;1661;53.572;10.174;2022-07-21T00:53:41;22.00;68.80
3298;DHT22;1661;53.572;10.174;2022-07-21T00:56:11;22.00;68.90
3298;DHT22;1661;53.572;10.174;2022-07-21T00:58:39;21.90;68.70
3298;DHT22;1661;53.572;10.174;2022-07-21T01:01:06;21.90;68.80
3298;DHT22;1661;53.572;10.174;2022-07-21T01:03:33;21.80;69.70
3298;DHT22;1661;53.572;10.174;2022-07-21T01:05:59;21.70;69.70
3298;DHT22;1661;53.572;10.174;2022-07-21T01:08:26;21.70;69.20
3298;DHT22;1661;53.572;10.174;2022-07-21T01:10:57;21.70;69.00
3298;DHT22;1661;53.572;10.174;2022-07-21T01:13:24;21.70;68.90
3298;DHT22;1661;53.572;10.174;2022-07-21T01:15:51;21.70;69.00
3298;DHT22;1661;53.572;10.174;2022-07-21T01:18:18;21.70;69.10
3298;DHT22;1661;53.572;10.174;2022-07-21T01:20:51;21.70;69.00
3298;DHT22;1661;53.572;10.174;2022-07-21T01:23:22;21.70;68.90
3298;DHT22;1661;53.572;10.174;2022-07-21T01:25:50;21.70;68.70
3298;DHT22;1661;53.572;10.174;2022-07-21T01:28:17;21.70;68.90
3298;DHT22;1661;53.572;10.174;2022-07-21T01:30:44;21.70;68.60
3298;DHT22;1661;53.572;10.174;2022-07-21T01:33:11;21.70;69.90
3298;DHT22;1661;53.572;10.174;2022-07-21T01:35:37;21.60;69.70
3298;DHT22;1661;53.572;10.174;2022-07-21T01:38:04;21.50;70.30
3298;DHT22;1661;53.572;10.174;2022-07-21T01:40:57;21.50;70.60
3298;DHT22;1661;53.572;10.174;2022-07-21T01:43:41;21.40;70.10
3298;DHT22;1661;53.572;10.174;2022-07-21T01:46:10;21.20;71.80
3298;DHT22;1661;53.572;10.174;2022-07-21T01:48:41;21.20;70.70
3298;DHT22;1661;53.572;10.174;2022-07-21T01:51:08;21.20;71.50
3298;DHT22;1661;53.572;10.174;2022-07-21T01:53:34;21.10;72.40
3298;DHT22;1661;53.572;10.174;2022-07-21T01:56:03;21.00;73.50
3298;DHT22;1661;53.572;10.174;2022-07-21T01:58:30;20.90;73.90
3298;DHT22;1661;53.572;10.174;2022-07-21T02:00:57;20.90;74.30
3298;DHT22;1661;53.572;10.174;2022-07-21T02:03:24;20.90;74.90
3298;DHT22;1661;53.572;10.174;2022-07-21T02:05:51;20.80;75.50
3298;DHT22;1661;53.572;10.174;2022-07-21T02:08:17;20.80;76.30
3298;DHT22;1661;53.572;10.174;2022-07-21T02:10:44;20.70;76.20
3298;DHT22;1661;53.572;10.174;2022-07-21T02:13:12;20.70;75.70
3298;DHT22;1661;53.572;10.174;2022-07-21T02:15:39;20.70;75.60
3298;DHT22;1661;53.572;10.174;2022-07-21T02:18:09;20.70;75.80
3298;DHT22;1661;53.572;10.174;2022-07-21T02:20:35;20.70;75.10
3298;DHT22;1661;53.572;10.174;2022-07-21T02:23:02;20.70;74.40
3298;DHT22;1661;53.572;10.174;2022-07-21T02:25:29;20.70;75.30
3298;DHT22;1661;53.572;10.174;2022-07-21T02:27:55;20.70;75.50
3298;DHT22;1661;53.572;10.174;2022-07-21T02:30:24;20.70;75.90
3298;DHT22;1661;53.572;10.174;2022-07-21T02:32:50;20.70;74.70
3298;DHT22;1661;53.572;10.174;2022-07-21T02:35:17;20.70;75.10
3298;DHT22;1661;53.572;10.174;2022-07-21T02:37:44;20.70;75.50
3298;DHT22;1661;53.572;10.174;2022-07-21T02:40:11;20.70;76.20
3298;DHT22;1661;53.572;10.174;2022-07-21T02:42:38;20.60;76.30
3298;DHT22;1661;53.572;10.174;2022-07-21T02:45:05;20.70;75.70
3298;DHT22;1661;53.572;10.174;2022-07-21T02:47:47;20.60;77.60
3298;DHT22;1661;53.572;10.174;2022-07-21T02:50:17;20.50;77.70
3298;DHT22;1661;53.572;10.174;2022-07-21T02:52:44;20.50;77.10
3298;DHT22;1661;53.572;10.174;2022-07-21T02:55:11;20.60;76.70
3298;DHT22;1661;53.572;10.174;2022-07-21T02:57:38;20.50;78.40
3298;DHT22;1661;53.572;10.174;2022-07-21T03:00:06;20.50;77.60
3298;DHT22;1661;53.572;10.174;2022-07-21T03:02:38;20.50;77.60
3298;DHT22;1661;53.572;10.174;2022-07-21T03:05:06;20.50;78.40
3298;DHT22;1661;53.572;10.174;2022-07-21T03:07:35;20.50;78.80
3298;DHT22;1661;53.572;10.174;2022-07-21T03:10:05;20.50;78.90
3298;DHT22;1661;53.572;10.174;2022-07-21T03:12:32;20.50;79.10
3298;DHT22;1661;53.572;10.174;2022-07-21T03:14:59;20.50;79.10
3298;DHT22;1661;53.572;10.174;2022-07-21T03:17:26;20.50;80.20
3298;DHT22;1661;53.572;10.174;2022-07-21T03:19:57;20.40;80.40
3298;DHT22;1661;53.572;10.174;2022-07-21T03:22:26;20.40;79.60
3298;DHT22;1661;53.572;10.174;2022-07-21T03:24:53;20.50;79.50
3298;DHT22;1661;53.572;10.174;2022-07-21T03:27:20;20.50;79.80
3298;DHT22;1661;53.572;10.174;2022-07-21T03:29:47;20.40;81.30
3298;DHT22;1661;53.572;10.174;2022-07-21T03:32:14;20.40;80.70
3298;DHT22;1661;53.572;10.174;2022-07-21T03:34:43;20.30;81.70
3298;DHT22;1661;53.572;10.174;2022-07-21T03:37:12;20.30;82.10
3298;DHT22;1661;53.572;10.174;2022-07-21T03:39:42;20.30;83.00
3298;DHT22;1661;53.572;10.174;2022-07-21T03:42:09;20.30;83.10
3298;DHT22;1661;53.572;10.174;2022-07-21T03:44:35;20.30;83.10
3298;DHT22;1661;53.572;10.174;2022-07-21T03:47:02;20.30;83.40
3298;DHT22;1661;53.572;10.174;2022-07-21T03:49:29;20.20;84.10
3298;DHT22;1661;53.572;10.174;2022-07-21T03:51:56;20.20;84.10
3298;DHT22;1661;53.572;10.174;2022-07-21T03:54:27;20.20;84.30
3298;DHT22;1661;53.572;10.174;2022-07-21T03:56:54;20.30;84.50
3298;DHT22;1661;53.572;10.174;2022-07-21T03:59:21;20.30;84.50
3298;DHT22;1661;53.572;10.174;2022-07-21T04:01:47;20.40;84.40
3298;DHT22;1661;53.572;10.174;2022-07-21T04:04:14;20.30;85.00
3298;DHT22;1661;53.572;10.174;2022-07-21T04:06:41;20.30;85.10
3298;DHT22;1661;53.572;10.174;2022-07-21T04:09:08;20.30;85.00
3298;DHT22;1661;53.572;10.174;2022-07-21T04:11:36;20.30;84.60
3298;DHT22;1661;53.572;10.174;2022-07-21T04:14:02;20.40;84.50
3298;DHT22;1661;53.572;10.174;2022-07-21T04:16:29;20.40;84.10
3298;DHT22;1661;53.572;10.174;2022-07-21T04:18:56;20.40;83.70
3298;DHT22;1661;53.572;10.174;2022-07-21T04:21:22;20.40;83.50
3298;DHT22;1661;53.572;10.174;2022-07-21T04:23:49;20.50;83.00
3298;DHT22;1661;53.572;10.174;2022-07-21T04:26:19;20.50;82.70
3298;DHT22;1661;53.572;10.174;2022-07-21T04:28:47;20.60;82.60
3298;DHT22;1661;53.572;10.174;2022-07-21T04:31:14;20.60;82.40
3298;DHT22;1661;53.572;10.174;2022-07-21T04:33:40;20.70;82.40
3298;DHT22;1661;53.572;10.174;2022-07-21T04:36:08;20.70;82.30
3298;DHT22;1661;53.572;10.174;2022-07-21T04:38:35;20.70;82.50
3298;DHT22;1661;53.572;10.174;2022-07-21T04:41:01;20.70;82.30
3298;DHT22;1661;53.572;10.174;2022-07-21T04:43:28;20.70;82.50
3298;DHT22;1661;53.572;10.174;2022-07-21T04:45:56;20.70;82.10
3298;DHT22;1661;53.572;10.174;2022-07-21T04:48:23;20.80;82.30
3298;DHT22;1661;53.572;10.174;2022-07-21T04:50:49;20.80;82.40
3298;DHT22;1661;53.572;10.174;2022-07-21T04:53:16;20.80;82.00
3298;DHT22;1661;53.572;10.174;2022-07-21T04:55:43;20.80;81.80
3298;DHT22;1661;53.572;10.174;2022-07-21T04:58:10;20.80;81.60
3298;DHT22;1661;53.572;10.174;2022-07-21T05:00:37;20.90;80.90
3298;DHT22;1661;53.572;10.174;2022-07-21T05:03:05;20.80;81.30
3298;DHT22;1661;53.572;10.174;2022-07-21T05:05:32;20.80;81.20
3298;DHT22;1661;53.572;10.174;2022-07-21T05:07:58;20.80;81.60
3298;DHT22;1661;53.572;10.174;2022-07-21T05:10:25;20.70;81.70
3298;DHT22;1661;53.572;10.174;2022-07-21T05:12:52;20.70;81.90
3298;DHT22;1661;53.572;10.174;2022-07-21T05:15:18;20.70;81.70
3298;DHT22;1661;53.572;10.174;2022-07-21T05:17:45;20.80;80.90
3298;DHT22;1661;53.572;10.174;2022-07-21T05:20:20;20.90;80.30
3298;DHT22;1661;53.572;10.174;2022-07-21T05:22:47;21.00;79.90
3298;DHT22;1661;53.572;10.174;2022-07-21T05:25:14;21.10;79.50
3298;DHT22;1661;53.572;10.174;2022-07-21T05:27:41;21.20;79.20
3298;DHT22;1661;53.572;10.174;2022-07-21T05:30:09;21.20;79.10
3298;DHT22;1661;53.572;10.174;2022-07-21T05:32:36;21.20;78.80
3298;DHT22;1661;53.572;10.174;2022-07-21T05:35:03;21.20;78.50
3298;DHT22;1661;53.572;10.174;2022-07-21T05:37:35;21.20;78.30
3298;DHT22;1661;53.572;10.174;2022-07-21T05:40:02;21.20;78.10
3298;DHT22;1661;53.572;10.174;2022-07-21T05:42:29;21.30;77.40
3298;DHT22;1661;53.572;10.174;2022-07-21T05:44:56;21.40;77.50
3298;DHT22;1661;53.572;10.174;2022-07-21T05:47:23;21.50;77.20
3298;DHT22;1661;53.572;10.174;2022-07-21T05:49:50;21.50;76.30
3298;DHT22;1661;53.572;10.174;2022-07-21T05:52:17;21.50;76.40
3298;DHT22;1661;53.572;10.174;2022-07-21T05:54:45;21.60;76.60
3298;DHT22;1661;53.572;10.174;2022-07-21T05:57:12;21.70;75.00
3298;DHT22;1661;53.572;10.174;2022-07-21T05:59:38;21.70;74.90
3298;DHT22;1661;53.572;10.174;2022-07-21T06:02:05;21.80;74.10
3298;DHT22;1661;53.572;10.174;2022-07-21T06:04:32;21.80;74.00
3298;DHT22;1661;53.572;10.174;2022-07-21T06:06:59;21.90;74.20
3298;DHT22;1661;53.572;10.174;2022-07-21T06:09:26;21.90;74.00
3298;DHT22;1661;53.572;10.174;2022-07-21T06:11:54;21.90;73.80
3298;DHT22;1661;53.572;10.174;2022-07-21T06:14:21;22.00;73.60
3298;DHT22;1661;53.572;10.174;2022-07-21T06:16:51;22.00;73.60
3298;DHT22;1661;53.572;10.174;2022-07-21T06:19:18;22.10;73.70
3298;DHT22;1661;53.572;10.174;2022-07-21T06:21:45;22.10;73.70
3298;DHT22;1661;53.572;10.174;2022-07-21T06:24:12;22.20;73.50
3298;DHT22;1661;53.572;10.174;2022-07-21T06:26:39;22.20;73.70
3298;DHT22;1661;53.572;10.174;2022-07-21T06:29:07;22.20;73.70
3298;DHT22;1661;53.572;10.174;2022-07-21T06:31:34;22.10;74.30
3298;DHT22;1661;53.572;10.174;2022-07-21T06:34:01;22.10;74.30
3298;DHT22;1661;53.572;10.174;2022-07-21T06:36:28;22.20;74.10
3298;DHT22;1661;53.572;10.174;2022-07-21T06:38:54;22.20;75.10
3298;DHT22;1661;53.572;10.174;2022-07-21T06:41:21;22.10;76.60
3298;DHT22;1661;53.572;10.174;2022-07-21T06:43:48;22.00;77.00
3298;DHT22;1661;53.572;10.174;2022-07-21T06:46:16;21.90;77.80
3298;DHT22;1661;53.572;10.174;2022-07-21T06:48:43;21.90;77.60
3298;DHT22;1661;53.572;10.174;2022-07-21T06:51:11;21.90;78.20
3298;DHT22;1661;53.572;10.174;2022-07-21T06:53:38;21.80;78.70
3298;DHT22;1661;53.572;10.174;2022-07-21T06:56:08;21.80;78.70
3298;DHT22;1661;53.572;10.174;2022-07-21T06:58:37;21.70;80.30
3298;DHT22;1661;53.572;10.174;2022-07-21T07:01:04;21.60;80.10
3298;DHT22;1661;53.572;10.174;2022-07-21T07:03:32;21.60;79.60
3298;DHT22;1661;53.572;10.174;2022-07-21T07:06:02;21.60;80.10
3298;DHT22;1661;53.572;10.174;2022-07-21T07:08:29;21.60;80.60
3298;DHT22;1661;53.572;10.174;2022-07-21T07:10:58;21.60;80.50
3298;DHT22;1661;53.572;10.174;2022-07-21T07:13:27;21.60;80.20
3298;DHT22;1661;53.572;10.174;2022-07-21T07:15:54;21.70;80.60
3298;DHT22;1661;53.572;10.174;2022-07-21T07:18:23;21.70;80.90
3298;DHT22;1661;53.572;10.174;2022-07-21T07:20:52;21.80;80.50
3298;DHT22;1661;53.572;10.174;2022-07-21T07:23:19;21.80;80.90
3298;DHT22;1661;53.572;10.174;2022-07-21T07:25:45;21.70;81.10
3298;DHT22;1661;53.572;10.174;2022-07-21T07:28:12;21.80;80.80
3298;DHT22;1661;53.572;10.174;2022-07-21T07:30:39;21.80;80.20
3298;DHT22;1661;53.572;10.174;2022-07-21T07:33:06;21.80;80.80
3298;DHT22;1661;53.572;10.174;2022-07-21T07:35:33;21.80;81.10
3298;DHT22;1661;53.572;10.174;2022-07-21T07:38:01;21.80;81.40
3298;DHT22;1661;53.572;10.174;2022-07-21T07:40:28;21.80;81.90
3298;DHT22;1661;53.572;10.174;2022-07-21T07:43:01;21.80;82.20
3298;DHT22;1661;53.572;10.174;2022-07-21T07:45:27;21.80;82.40
3298;DHT22;1661;53.572;10.174;2022-07-21T07:47:54;21.80;82.90
3298;DHT22;1661;53.572;10.174;2022-07-21T07:50:21;21.80;83.00
3298;DHT22;1661;53.572;10.174;2022-07-21T07:52:48;21.70;83.50
3298;DHT22;1661;53.572;10.174;2022-07-21T07:55:16;21.70;83.60
3298;DHT22;1661;53.572;10.174;2022-07-21T07:57:43;21.70;84.00
3298;DHT22;1661;53.572;10.174;2022-07-21T08:00:13;21.70;84.20
3298;DHT22;1661;53.572;10.174;2022-07-21T08:02:41;21.70;84.40
3298;DHT22;1661;53.572;10.174;2022-07-21T08:05:08;21.70;84.80
3298;DHT22;1661;53.572;10.174;2022-07-21T08:07:35;21.70;84.80
3298;DHT22;1661;53.572;10.174;2022-07-21T08:10:04;21.70;84.90
3298;DHT22;1661;53.572;10.174;2022-07-21T08:12:32;21.80;85.20
3298;DHT22;1661;53.572;10.174;2022-07-21T08:15:02;21.80;85.50
3298;DHT22;1661;53.572;10.174;2022-07-21T08:17:29;21.80;85.70
3298;DHT22;1661;53.572;10.174;2022-07-21T08:19:56;21.90;85.70
3298;DHT22;1661;53.572;10.174;2022-07-21T08:22:22;21.90;85.40
3298;DHT22;1661;53.572;10.174;2022-07-21T08:24:49;21.90;85.00
3298;DHT22;1661;53.572;10.174;2022-07-21T08:27:16;22.00;85.10
3298;DHT22;1661;53.572;10.174;2022-07-21T08:29:44;22.10;84.90
3298;DHT22;1661;53.572;10.174;2022-07-21T08:32:11;22.20;84.90
3298;DHT22;1661;53.572;10.174;2022-07-21T08:34:41;22.20;84.90
3298;DHT22;1661;53.572;10.174;2022-07-21T08:37:08;22.30;84.70
3298;DHT22;1661;53.572;10.174;2022-07-21T08:39:35;22.40;84.80
3298;DHT22;1661;53.572;10.174;2022-07-21T08:42:04;22.60;84.80
3298;DHT22;1661;53.572;10.174;2022-07-21T08:44:32;22.80;84.50
3298;DHT22;1661;53.572;10.174;2022-07-21T08:47:00;22.90;83.50
3298;DHT22;1661;53.572;10.174;2022-07-21T08:49:27;23.10;82.70
3298;DHT22;1661;53.572;10.174;2022-07-21T08:51:54;23.40;82.50
3298;DHT22;1661;53.572;10.174;2022-07-21T08:54:24;23.50;81.10
3298;DHT22;1661;53.572;10.174;2022-07-21T08:56:51;23.60;80.10
3298;DHT22;1661;53.572;10.174;2022-07-21T08:59:19;23.70;80.00
3298;DHT22;1661;53.572;10.174;2022-07-21T09:01:46;23.80;79.00
3298;DHT22;1661;53.572;10.174;2022-07-21T09:04:22;23.90;78.60
3298;DHT22;1661;53.572;10.174;2022-07-21T09:06:50;24.00;78.60
3298;DHT22;1661;53.572;10.174;2022-07-21T09:09:19;24.00;78.70
3298;DHT22;1661;53.572;10.174;2022-07-21T09:11:46;24.10;78.60
3298;DHT22;1661;53.572;10.174;2022-07-21T09:14:14;24.10;78.10
3298;DHT22;1661;53.572;10.174;2022-07-21T09:16:45;24.10;78.60
3298;DHT22;1661;53.572;10.174;2022-07-21T09:19:16;24.10;78.60
3298;DHT22;1661;53.572;10.174;2022-07-21T09:21:45;24.20;78.40
3298;DHT22;1661;53.572;10.174;2022-07-21T09:24:17;24.20;78.40
3298;DHT22;1661;53.572;10.174;2022-07-21T09:27:04;24.20;78.40
3298;DHT22;1661;53.572;10.174;2022-07-21T09:29:40;24.20;78.10
3298;DHT22;1661;53.572;10.174;2022-07-21T09:32:28;24.20;78.10
3298;DHT22;1661;53.572;10.174;2022-07-21T09:34:58;24.30;78.30
3298;DHT22;1661;53.572;10.174;2022-07-21T09:37:27;24.40;78.50
3298;DHT22;1661;53.572;10.174;2022-07-21T09:39:55;24.50;78.70
3298;DHT22;1661;53.572;10.174;2022-07-21T09:42:24;24.60;77.50
3298;DHT22;1661;53.572;10.174;2022-07-21T09:44:53;24.70;77.00
3298;DHT22;1661;53.572;10.174;2022-07-21T09:47:22;24.80;76.90
3298;DHT22;1661;53.572;10.174;2022-07-21T09:49:50;24.90;76.60
3298;DHT22;1661;53.572;10.174;2022-07-21T09:52:22;24.90;75.80
3298;DHT22;1661;53.572;10.174;2022-07-21T09:54:58;25.00;75.50
3298;DHT22;1661;53.572;10.174;2022-07-21T09:57:26;24.90;75.60
3298;DHT22;1661;53.572;10.174;2022-07-21T09:59:53;24.90;75.60
3298;DHT22;1661;53.572;10.174;2022-07-21T10:02:22;24.90;75.50
3298;DHT22;1661;53.572;10.174;2022-07-21T10:04:55;24.90;75.20
3298;DHT22;1661;53.572;10.174;2022-07-21T10:07:23;25.00;75.10
3298;DHT22;1661;53.572;10.174;2022-07-21T10:09:50;24.90;75.20
3298;DHT22;1661;53.572;10.174;2022-07-21T10:12:19;24.80;74.60
3298;DHT22;1661;53.572;10.174;2022-07-21T10:14:46;24.80;75.30
3298;DHT22;1661;53.572;10.174;2022-07-21T10:17:13;24.90;75.10
3298;DHT22;1661;53.572;10.174;2022-07-21T10:19:47;25.00;74.80
3298;DHT22;1661;53.572;10.174;2022-07-21T10:22:22;25.10;74.40
3298;DHT22;1661;53.572;10.174;2022-07-21T10:24:50;25.20;73.80
3298;DHT22;1661;53.572;10.174;2022-07-21T10:27:19;25.20;73.80
3298;DHT22;1661;53.572;10.174;2022-07-21T10:29:56;25.30;73.40
3298;DHT22;1661;53.572;10.174;2022-07-21T10:32:26;25.50;73.40
3298;DHT22;1661;53.572;10.174;2022-07-21T10:34:53;25.60;72.70
3298;DHT22;1661;53.572;10.174;2022-07-21T10:37:43;25.80;72.10
3298;DHT22;1661;53.572;10.174;2022-07-21T10:40:34;25.90;72.10
3298;DHT22;1661;53.572;10.174;2022-07-21T10:43:38;26.00;70.20
3298;DHT22;1661;53.572;10.174;2022-07-21T10:46:35;26.20;70.10
3298;DHT22;1661;53.572;10.174;2022-07-21T10:49:07;26.40;69.70
3298;DHT22;1661;53.572;10.174;2022-07-21T10:51:35;26.60;68.70
3298;DHT22;1661;53.572;10.174;2022-07-21T10:54:20;26.90;67.30
3298;DHT22;1661;53.572;10.174;2022-07-21T10:56:47;27.00;66.30
3298;DHT22;1661;53.572;10.174;2022-07-21T10:59:18;27.10;65.30
3298;DHT22;1661;53.572;10.174;2022-07-21T11:01:44;27.20;65.70
3298;DHT22;1661;53.572;10.174;2022-07-21T11:04:13;27.30;65.20
3298;DHT22;1661;53.572;10.174;2022-07-21T11:06:42;27.40;65.80
3298;DHT22;1661;53.572;10.174;2022-07-21T11:09:11;27.60;65.90
3298;DHT22;1661;53.572;10.174;2022-07-21T11:11:56;27.80;64.30
3298;DHT22;1661;53.572;10.174;2022-07-21T11:14:37;28.00;63.70
3298;DHT22;1661;53.572;10.174;2022-07-21T11:17:04;28.10;62.50
3298;DHT22;1661;53.572;10.174;2022-07-21T11:19:34;28.20;61.70
3298;DHT22;1661;53.572;10.174;2022-07-21T11:22:05;28.20;62.00
3298;DHT22;1661;53.572;10.174;2022-07-21T11:24:33;28.20;61.20
3298;DHT22;1661;53.572;10.174;2022-07-21T11:27:02;28.20;60.70
3298;DHT22;1661;53.572;10.174;2022-07-21T11:29:30;28.20;60.90
3298;DHT22;1661;53.572;10.174;2022-07-21T11:32:02;28.20;61.10
3298;DHT22;1661;53.572;10.174;2022-07-21T11:34:43;28.20;61.10
3298;DHT22;1661;53.572;10.174;2022-07-21T11:37:11;28.30;60.80
3298;DHT22;1661;53.572;10.174;2022-07-21T11:39:39;28.40;60.70
3298;DHT22;1661;53.572;10.174;2022-07-21T11:42:08;28.30;60.20
3298;DHT22;1661;53.572;10.174;2022-07-21T11:44:35;28.00;61.60
3298;DHT22;1661;53.572;10.174;2022-07-21T11:47:09;28.00;60.40
3298;DHT22;1661;53.572;10.174;2022-07-21T11:49:36;28.10;61.00
3298;DHT22;1661;53.572;10.174;2022-07-21T11:52:08;28.10;60.90
3298;DHT22;1661;53.572;10.174;2022-07-21T11:54:43;28.20;61.60
3298;DHT22;1661;53.572;10.174;2022-07-21T11:57:11;28.40;60.70
3298;DHT22;1661;53.572;10.174;2022-07-21T11:59:39;28.60;60.10
3298;DHT22;1661;53.572;10.174;2022-07-21T12:02:10;28.70;59.40
3298;DHT22;1661;53.572;10.174;2022-07-21T12:04:40;28.90;59.10
3298;DHT22;1661;53.572;10.174;2022-07-21T12:07:13;29.10;58.70
3298;DHT22;1661;53.572;10.174;2022-07-21T12:09:41;29.20;58.40
3298;DHT22;1661;53.572;10.174;2022-07-21T12:12:08;29.40;57.90
3298;DHT22;1661;53.572;10.174;2022-07-21T12:14:44;29.60;57.30
3298;DHT22;1661;53.572;10.174;2022-07-21T12:17:33;29.80;57.60
3298;DHT22;1661;53.572;10.174;2022-07-21T12:20:00;30.00;56.90
3298;DHT22;1661;53.572;10.174;2022-07-21T12:22:35;30.10;56.50
3298;DHT22;1661;53.572;10.174;2022-07-21T12:25:02;30.20;55.20
3298;DHT22;1661;53.572;10.174;2022-07-21T12:27:31;30.40;55.60
3298;DHT22;1661;53.572;10.174;2022-07-21T12:29:57;30.60;54.90
3298;DHT22;1661;53.572;10.174;2022-07-21T12:32:47;30.80;54.30
3298;DHT22;1661;53.572;10.174;2022-07-21T12:35:24;30.90;53.70
3298;DHT22;1661;53.572;10.174;2022-07-21T12:41:18;31.20;52.80
3298;DHT22;1661;53.572;10.174;2022-07-21T12:43:54;31.40;53.00
3298;DHT22;1661;53.572;10.174;2022-07-21T12:46:27;31.50;52.60
3298;DHT22;1661;53.572;10.174;2022-07-21T12:49:03;31.60;51.90
3298;DHT22;1661;53.572;10.174;2022-07-21T12:54:53;31.60;52.20
3298;DHT22;1661;53.572;10.174;2022-07-21T12:57:20;31.60;51.40
3298;DHT22;1661;53.572;10.174;2022-07-21T12:59:47;31.60;51.70
3298;DHT22;1661;53.572;10.174;2022-07-21T13:02:17;31.60;52.70
3298;DHT22;1661;53.572;10.174;2022-07-21T13:08:07;31.90;51.20
3298;DHT22;1661;53.572;10.174;2022-07-21T13:10:36;32.10;50.30
3298;DHT22;1661;53.572;10.174;2022-07-21T13:13:04;31.80;51.10
3298;DHT22;1661;53.572;10.174;2022-07-21T13:15:31;31.90;50.60
3298;DHT22;1661;53.572;10.174;2022-07-21T13:17:57;32.00;48.50
3298;DHT22;1661;53.572;10.174;2022-07-21T13:20:24;32.00;49.00
3298;DHT22;1661;53.572;10.174;2022-07-21T13:22:51;32.00;48.60
3298;DHT22;1661;53.572;10.174;2022-07-21T13:25:19;31.90;49.00
3298;DHT22;1661;53.572;10.174;2022-07-21T13:27:46;31.90;49.30
3298;DHT22;1661;53.572;10.174;2022-07-21T13:30:13;31.80;49.40
3298;DHT22;1661;53.572;10.174;2022-07-21T13:32:40;31.80;49.30
3298;DHT22;1661;53.572;10.174;2022-07-21T13:35:07;31.70;49.70
3298;DHT22;1661;53.572;10.174;2022-07-21T13:37:34;31.50;49.90
3298;DHT22;1661;53.572;10.174;2022-07-21T13:40:00;31.30;50.50
3298;DHT22;1661;53.572;10.174;2022-07-21T13:42:29;31.10;50.90
3298;DHT22;1661;53.572;10.174;2022-07-21T13:44:56;30.80;51.70
3298;DHT22;1661;53.572;10.174;2022-07-21T13:47:23;30.60;52.90
3298;DHT22;1661;53.572;10.174;2022-07-21T13:49:49;30.50;52.70
3298;DHT22;1661;53.572;10.174;2022-07-21T13:52:16;30.50;52.10
3298;DHT22;1661;53.572;10.174;2022-07-21T13:54:43;30.50;52.30
3298;DHT22;1661;53.572;10.174;2022-07-21T13:57:10;30.60;52.30
3298;DHT22;1661;53.572;10.174;2022-07-21T13:59:39;30.70;51.90
3298;DHT22;1661;53.572;10.174;2022-07-21T14:02:07;30.80;51.50
3298;DHT22;1661;53.572;10.174;2022-07-21T14:04:33;30.90;51.80
3298;DHT22;1661;53.572;10.174;2022-07-21T14:07:00;31.00;51.30
3298;DHT22;1661;53.572;10.174;2022-07-21T14:09:27;31.00;52.10
3298;DHT22;1661;53.572;10.174;2022-07-21T14:11:54;31.10;51.70
3298;DHT22;1661;53.572;10.174;2022-07-21T14:14:22;31.20;51.70
3298;DHT22;1661;53.572;10.174;2022-07-21T14:16:53;31.40;51.50
3298;DHT22;1661;53.572;10.174;2022-07-21T14:19:20;31.50;50.30
3298;DHT22;1661;53.572;10.174;2022-07-21T14:21:47;31.70;49.70
3298;DHT22;1661;53.572;10.174;2022-07-21T14:24:15;31.80;49.50
3298;DHT22;1661;53.572;10.174;2022-07-21T14:26:59;31.80;49.70
3298;DHT22;1661;53.572;10.174;2022-07-21T14:29:29;31.90;49.90
3298;DHT22;1661;53.572;10.174;2022-07-21T14:31:57;32.00;49.40
3298;DHT22;1661;53.572;10.174;2022-07-21T14:34:24;32.00;48.70
3298;DHT22;1661;53.572;10.174;2022-07-21T14:36:50;31.90;48.20
3298;DHT22;1661;53.572;10.174;2022-07-21T14:39:18;31.90;48.30
3298;DHT22;1661;53.572;10.174;2022-07-21T14:41:45;32.00;48.40
3298;DHT22;1661;53.572;10.174;2022-07-21T14:44:12;32.00;48.40
3298;DHT22;1661;53.572;10.174;2022-07-21T14:46:39;31.90;48.80
3298;DHT22;1661;53.572;10.174;2022-07-21T14:49:10;32.00;48.30
3298;DHT22;1661;53.572;10.174;2022-07-21T14:51:37;32.10;48.30
3298;DHT22;1661;53.572;10.174;2022-07-21T14:54:04;32.20;48.60
3298;DHT22;1661;53.572;10.174;2022-07-21T14:56:31;32.30;48.70
3298;DHT22;1661;53.572;10.174;2022-07-21T14:58:57;32.20;48.40
3298;DHT22;1661;53.572;10.174;2022-07-21T15:01:27;32.10;49.00
3298;DHT22;1661;53.572;10.174;2022-07-21T15:03:54;31.90;48.90
3298;DHT22;1661;53.572;10.174;2022-07-21T15:06:22;31.90;49.80
3298;DHT22;1661;53.572;10.174;2022-07-21T15:08:49;31.70;49.80
3298;DHT22;1661;53.572;10.174;2022-07-21T15:11:15;31.60;49.60
3298;DHT22;1661;53.572;10.174;2022-07-21T15:13:43;31.30;49.70
3298;DHT22;1661;53.572;10.174;2022-07-21T15:16:10;31.20;50.90
3298;DHT22;1661;53.572;10.174;2022-07-21T15:18:37;31.00;51.00
3298;DHT22;1661;53.572;10.174;2022-07-21T15:21:04;30.90;51.40
3298;DHT22;1661;53.572;10.174;2022-07-21T15:23:32;30.70;53.10
3298;DHT22;1661;53.572;10.174;2022-07-21T15:25:58;30.40;54.20
3298;DHT22;1661;53.572;10.174;2022-07-21T15:28:25;29.70;57.90
3298;DHT22;1661;53.572;10.174;2022-07-21T15:30:52;28.60;58.00
3298;DHT22;1661;53.572;10.174;2022-07-21T15:33:19;27.80;58.80
3298;DHT22;1661;53.572;10.174;2022-07-21T15:35:46;26.90;59.60
3298;DHT22;1661;53.572;10.174;2022-07-21T15:38:14;26.00;62.00
3298;DHT22;1661;53.572;10.174;2022-07-21T15:40:42;25.30;65.20
3298;DHT22;1661;53.572;10.174;2022-07-21T15:43:09;25.00;66.40
3298;DHT22;1661;53.572;10.174;2022-07-21T15:45:36;24.80;67.40
3298;DHT22;1661;53.572;10.174;2022-07-21T15:48:03;24.70;68.80
3298;DHT22;1661;53.572;10.174;2022-07-21T15:50:29;24.70;69.40
3298;DHT22;1661;53.572;10.174;2022-07-21T15:52:56;24.70;70.40
3298;DHT22;1661;53.572;10.174;2022-07-21T15:55:23;24.60;70.20
3298;DHT22;1661;53.572;10.174;2022-07-21T15:57:52;24.60;71.00
3298;DHT22;1661;53.572;10.174;2022-07-21T16:00:20;24.60;70.20
3298;DHT22;1661;53.572;10.174;2022-07-21T16:02:50;24.60;70.30
3298;DHT22;1661;53.572;10.174;2022-07-21T16:05:20;24.60;71.20